Terminal Aerodrome Forecast
Issued by NWS

Home | Current Version | Previous Version | Text Only | Print | Product List | Glossary On
Versions: 1 2 3 4 5 6 7 8 9 10 11 12 13 14
000
FTUS43 KGRR 291129
TAFAZO
TAF
KAZO 291129Z 2912/3012 20007KT P6SM VCSH OVC080
      TEMPO 2916/2919 5SM -SHRA BR SCT015 BKN025
     FM292000 27012G20KT P6SM SCT050 BKN250
     FM300100 25007KT P6SM SKC=

USA.gov is the U.S. government's official web portal to all federal, state and local government web resources and services.